sensor_id;sensor_type;location;lat;lon;timestamp;pressure;altitude;pressure_sealevel;temperature;humidity
38780;BME280;29273;49.962;9.768;2022-10-16T00:01:45;99538.84;;;18.58;66.63
38780;BME280;29273;49.962;9.768;2022-10-16T00:04:11;99537.00;;;18.59;66.88
38780;BME280;29273;49.962;9.768;2022-10-16T00:06:37;99538.59;;;18.60;66.62
38780;BME280;29273;49.962;9.768;2022-10-16T00:09:03;99535.91;;;18.60;66.67
38780;BME280;29273;49.962;9.768;2022-10-16T00:11:30;99543.19;;;18.64;66.71
38780;BME280;29273;49.962;9.768;2022-10-16T00:14:00;99541.28;;;18.60;66.68
38780;BME280;29273;49.962;9.768;2022-10-16T00:16:28;99538.06;;;18.63;66.53
38780;BME280;29273;49.962;9.768;2022-10-16T00:18:53;99538.06;;;18.58;67.06
38780;BME280;29273;49.962;9.768;2022-10-16T00:21:22;99542.66;;;18.62;66.81
38780;BME280;29273;49.962;9.768;2022-10-16T00:24:09;99538.59;;;18.60;66.92
38780;BME280;29273;49.962;9.768;2022-10-16T00:26:37;99543.97;;;18.60;67.02
38780;BME280;29273;49.962;9.768;2022-10-16T00:29:03;99544.47;;;18.57;67.14
38780;BME280;29273;49.962;9.768;2022-10-16T00:31:29;99540.19;;;18.56;67.36
38780;BME280;29273;49.962;9.768;2022-10-16T00:33:55;99538.84;;;18.53;67.46
38780;BME280;29273;49.962;9.768;2022-10-16T00:36:23;99546.91;;;18.58;67.12
38780;BME280;29273;49.962;9.768;2022-10-16T00:38:51;99547.16;;;18.57;67.58
38780;BME280;29273;49.962;9.768;2022-10-16T00:41:19;99547.72;;;18.54;67.75
38780;BME280;29273;49.962;9.768;2022-10-16T00:43:53;99552.84;;;18.60;66.97
38780;BME280;29273;49.962;9.768;2022-10-16T00:46:28;99552.25;;;18.58;66.98
38780;BME280;29273;49.962;9.768;2022-10-16T00:51:38;99548.25;;;18.56;67.08
38780;BME280;29273;49.962;9.768;2022-10-16T00:54:08;99560.03;;;18.55;67.95
38780;BME280;29273;49.962;9.768;2022-10-16T00:56:34;99559.75;;;18.51;68.31
38780;BME280;29273;49.962;9.768;2022-10-16T00:59:02;99550.66;;;18.52;67.75
38780;BME280;29273;49.962;9.768;2022-10-16T01:01:30;99543.38;;;18.47;68.20
38780;BME280;29273;49.962;9.768;2022-10-16T01:03:55;99550.38;;;18.48;68.20
38780;BME280;29273;49.962;9.768;2022-10-16T01:09:36;99554.13;;;18.53;67.12
38780;BME280;29273;49.962;9.768;2022-10-16T01:14:45;99553.59;;;18.51;67.32
38780;BME280;29273;49.962;9.768;2022-10-16T01:17:16;99543.38;;;18.47;67.68
38780;BME280;29273;49.962;9.768;2022-10-16T01:20:23;99556.50;;;18.44;67.04
38780;BME280;29273;49.962;9.768;2022-10-16T01:23:15;99557.56;;;18.43;67.12
38780;BME280;29273;49.962;9.768;2022-10-16T01:26:10;99551.13;;;18.44;67.34
38780;BME280;29273;49.962;9.768;2022-10-16T01:28:40;99547.78;;;18.21;67.52
38780;BME280;29273;49.962;9.768;2022-10-16T01:31:09;99544.66;;;18.40;68.15
38780;BME280;29273;49.962;9.768;2022-10-16T01:33:42;99548.72;;;18.42;68.02
38780;BME280;29273;49.962;9.768;2022-10-16T01:36:15;99550.59;;;18.42;67.96
38780;BME280;29273;49.962;9.768;2022-10-16T01:38:44;99544.91;;;18.38;68.66
38780;BME280;29273;49.962;9.768;2022-10-16T01:41:22;99547.34;;;18.40;67.84
38780;BME280;29273;49.962;9.768;2022-10-16T01:46:28;99552.94;;;18.33;68.94
38780;BME280;29273;49.962;9.768;2022-10-16T01:48:56;99560.97;;;18.33;68.51
38780;BME280;29273;49.962;9.768;2022-10-16T01:51:23;99562.88;;;18.33;68.66
38780;BME280;29273;49.962;9.768;2022-10-16T01:53:53;99566.88;;;18.35;68.05
38780;BME280;29273;49.962;9.768;2022-10-16T01:56:21;99565.81;;;18.31;68.56
38780;BME280;29273;49.962;9.768;2022-10-16T01:58:53;99553.75;;;18.34;68.17
38780;BME280;29273;49.962;9.768;2022-10-16T02:01:22;99562.31;;;18.30;68.31
38780;BME280;29273;49.962;9.768;2022-10-16T02:03:51;99570.09;;;18.32;67.88
38780;BME280;29273;49.962;9.768;2022-10-16T02:06:18;99572.75;;;18.27;68.12
38780;BME280;29273;49.962;9.768;2022-10-16T02:08:44;99564.97;;;18.25;68.09
38780;BME280;29273;49.962;9.768;2022-10-16T02:11:10;99559.03;;;18.23;68.12
38780;BME280;29273;49.962;9.768;2022-10-16T02:13:44;99566.06;;;18.29;67.26
38780;BME280;29273;49.962;9.768;2022-10-16T02:16:11;99564.41;;;18.23;68.03
38780;BME280;29273;49.962;9.768;2022-10-16T02:18:38;99561.72;;;18.23;68.02
38780;BME280;29273;49.962;9.768;2022-10-16T02:21:14;99571.94;;;18.26;67.39
38780;BME280;29273;49.962;9.768;2022-10-16T02:26:51;99589.84;;;18.21;66.99
38780;BME280;29273;49.962;9.768;2022-10-16T02:29:21;99584.50;;;18.21;67.49
38780;BME280;29273;49.962;9.768;2022-10-16T02:31:50;99586.63;;;18.19;67.46
38780;BME280;29273;49.962;9.768;2022-10-16T02:34:18;99572.66;;;18.17;67.42
38780;BME280;29273;49.962;9.768;2022-10-16T02:36:47;99566.50;;;18.16;67.57
38780;BME280;29273;49.962;9.768;2022-10-16T02:39:14;99582.28;;;18.12;67.74
38780;BME280;29273;49.962;9.768;2022-10-16T02:41:40;99584.97;;;18.12;67.68
38780;BME280;29273;49.962;9.768;2022-10-16T02:44:06;99588.97;;;18.10;67.68
38780;BME280;29273;49.962;9.768;2022-10-16T02:46:31;99598.09;;;18.09;67.60
38780;BME280;29273;49.962;9.768;2022-10-16T02:48:57;99589.22;;;18.08;67.55
38780;BME280;29273;49.962;9.768;2022-10-16T02:51:22;99596.47;;;18.08;67.74
38780;BME280;29273;49.962;9.768;2022-10-16T02:53:48;99596.47;;;18.08;67.61
38780;BME280;29273;49.962;9.768;2022-10-16T02:56:13;99606.91;;;18.09;67.94
38780;BME280;29273;49.962;9.768;2022-10-16T02:58:39;99607.72;;;18.10;68.04
38780;BME280;29273;49.962;9.768;2022-10-16T03:01:04;99616.59;;;18.10;68.07
38780;BME280;29273;49.962;9.768;2022-10-16T03:03:30;99612.53;;;18.08;68.06
38780;BME280;29273;49.962;9.768;2022-10-16T03:05:55;99608.81;;;18.09;68.31
38780;BME280;29273;49.962;9.768;2022-10-16T03:08:21;99612.03;;;18.11;68.39
38780;BME280;29273;49.962;9.768;2022-10-16T03:10:49;99609.88;;;18.13;68.18
38780;BME280;29273;49.962;9.768;2022-10-16T03:13:15;99612.56;;;18.13;68.22
38780;BME280;29273;49.962;9.768;2022-10-16T03:15:41;99606.16;;;18.14;68.33
38780;BME280;29273;49.962;9.768;2022-10-16T03:18:06;99605.06;;;18.15;68.30
38780;BME280;29273;49.962;9.768;2022-10-16T03:20:32;99610.44;;;18.15;68.36
38780;BME280;29273;49.962;9.768;2022-10-16T03:22:58;99611.25;;;18.16;68.50
38780;BME280;29273;49.962;9.768;2022-10-16T03:25:23;99609.38;;;18.16;68.37
38780;BME280;29273;49.962;9.768;2022-10-16T03:27:49;99599.47;;;18.17;68.21
38780;BME280;29273;49.962;9.768;2022-10-16T03:30:14;99597.34;;;18.19;68.53
38780;BME280;29273;49.962;9.768;2022-10-16T03:32:40;99592.78;;;18.19;68.39
38780;BME280;29273;49.962;9.768;2022-10-16T03:35:06;99597.34;;;18.19;68.37
38780;BME280;29273;49.962;9.768;2022-10-16T03:37:31;99600.03;;;18.19;68.41
38780;BME280;29273;49.962;9.768;2022-10-16T03:39:57;99602.72;;;18.19;68.38
38780;BME280;29273;49.962;9.768;2022-10-16T03:42:23;99607.00;;;18.20;68.48
38780;BME280;29273;49.962;9.768;2022-10-16T03:44:49;99605.94;;;18.21;68.52
38780;BME280;29273;49.962;9.768;2022-10-16T03:47:15;99594.41;;;18.20;68.51
38780;BME280;29273;49.962;9.768;2022-10-16T03:49:40;99602.47;;;18.20;68.34
38780;BME280;29273;49.962;9.768;2022-10-16T03:52:06;99610.50;;;18.20;68.41
38780;BME280;29273;49.962;9.768;2022-10-16T03:54:31;99601.63;;;18.20;68.63
38780;BME280;29273;49.962;9.768;2022-10-16T03:56:57;99606.75;;;18.21;68.58
38780;BME280;29273;49.962;9.768;2022-10-16T03:59:22;99615.88;;;18.20;68.40
38780;BME280;29273;49.962;9.768;2022-10-16T04:01:48;99612.34;;;18.20;68.61
38780;BME280;29273;49.962;9.768;2022-10-16T04:04:13;99620.41;;;18.20;68.42
38780;BME280;29273;49.962;9.768;2022-10-16T04:06:38;99619.59;;;18.19;68.67
38780;BME280;29273;49.962;9.768;2022-10-16T04:09:04;99598.94;;;18.20;68.49
38780;BME280;29273;49.962;9.768;2022-10-16T04:11:30;99610.75;;;18.19;68.29
38780;BME280;29273;49.962;9.768;2022-10-16T04:13:55;99619.59;;;18.19;68.37
38780;BME280;29273;49.962;9.768;2022-10-16T04:16:20;99606.19;;;18.19;68.30
38780;BME280;29273;49.962;9.768;2022-10-16T04:18:46;99616.38;;;18.17;68.24
38780;BME280;29273;49.962;9.768;2022-10-16T04:21:11;99627.88;;;18.18;68.08
38780;BME280;29273;49.962;9.768;2022-10-16T04:23:37;99628.94;;;18.17;68.43
38780;BME280;29273;49.962;9.768;2022-10-16T04:26:03;99630.81;;;18.16;68.33
38780;BME280;29273;49.962;9.768;2022-10-16T04:28:28;99632.69;;;18.16;68.42
38780;BME280;29273;49.962;9.768;2022-10-16T04:30:54;99641.78;;;18.15;68.33
38780;BME280;29273;49.962;9.768;2022-10-16T04:33:20;99638.06;;;18.16;68.31
38780;BME280;29273;49.962;9.768;2022-10-16T04:35:45;99640.75;;;18.16;68.43
38780;BME280;29273;49.962;9.768;2022-10-16T04:38:11;99649.84;;;18.15;68.50
38780;BME280;29273;49.962;9.768;2022-10-16T04:40:36;99643.44;;;18.16;68.40
38780;BME280;29273;49.962;9.768;2022-10-16T04:43:05;99646.41;;;18.19;68.08
38780;BME280;29273;49.962;9.768;2022-10-16T04:45:31;99653.31;;;18.15;68.50
38780;BME280;29273;49.962;9.768;2022-10-16T04:47:57;99657.88;;;18.15;68.40
38780;BME280;29273;49.962;9.768;2022-10-16T04:50:23;99657.88;;;18.15;68.48
38780;BME280;29273;49.962;9.768;2022-10-16T04:53:03;99654.66;;;18.12;68.47
38780;BME280;29273;49.962;9.768;2022-10-16T04:55:29;99651.16;;;18.12;68.55
38780;BME280;29273;49.962;9.768;2022-10-16T04:57:54;99648.50;;;18.12;68.73
38780;BME280;29273;49.962;9.768;2022-10-16T05:00:20;99650.09;;;18.13;68.72
38780;BME280;29273;49.962;9.768;2022-10-16T05:02:49;99645.56;;;18.14;68.76
38780;BME280;29273;49.962;9.768;2022-10-16T05:05:14;99653.59;;;18.14;68.65
38780;BME280;29273;49.962;9.768;2022-10-16T05:07:40;99648.50;;;18.12;68.73
38780;BME280;29273;49.962;9.768;2022-10-16T05:10:05;99659.22;;;18.12;68.68
38780;BME280;29273;49.962;9.768;2022-10-16T05:12:31;99661.06;;;18.11;68.82
38780;BME280;29273;49.962;9.768;2022-10-16T05:14:57;99661.91;;;18.12;68.81
38780;BME280;29273;49.962;9.768;2022-10-16T05:17:26;99662.72;;;18.18;68.15
38780;BME280;29273;49.962;9.768;2022-10-16T05:19:52;99655.69;;;18.11;68.86
38780;BME280;29273;49.962;9.768;2022-10-16T05:22:17;99657.34;;;18.12;68.80
38780;BME280;29273;49.962;9.768;2022-10-16T05:24:43;99661.06;;;18.11;68.84
38780;BME280;29273;49.962;9.768;2022-10-16T05:27:10;99662.44;;;18.14;68.65
38780;BME280;29273;49.962;9.768;2022-10-16T05:29:36;99657.59;;;18.11;68.66
38780;BME280;29273;49.962;9.768;2022-10-16T05:32:02;99657.59;;;18.11;68.55
38780;BME280;29273;49.962;9.768;2022-10-16T05:34:28;99663.75;;;18.11;68.60
38780;BME280;29273;49.962;9.768;2022-10-16T05:36:53;99662.16;;;18.10;68.52
38780;BME280;29273;49.962;9.768;2022-10-16T05:39:19;99662.41;;;18.09;68.49
38780;BME280;29273;49.962;9.768;2022-10-16T05:41:44;99654.34;;;18.09;68.39
38780;BME280;29273;49.962;9.768;2022-10-16T05:44:10;99652.44;;;18.04;68.14
38780;BME280;29273;49.962;9.768;2022-10-16T05:46:36;99665.59;;;18.06;68.33
38780;BME280;29273;49.962;9.768;2022-10-16T05:49:01;99666.09;;;18.03;68.28
38780;BME280;29273;49.962;9.768;2022-10-16T05:51:27;99670.66;;;18.02;68.24
38780;BME280;29273;49.962;9.768;2022-10-16T05:53:52;99666.34;;;18.01;68.35
38780;BME280;29273;49.962;9.768;2022-10-16T05:56:18;99660.19;;;18.01;68.08
38780;BME280;29273;49.962;9.768;2022-10-16T05:58:43;99677.56;;;17.98;68.19
38780;BME280;29273;49.962;9.768;2022-10-16T06:01:15;99687.53;;;18.03;67.82
38780;BME280;29273;49.962;9.768;2022-10-16T06:03:41;99681.56;;;17.96;68.40
38780;BME280;29273;49.962;9.768;2022-10-16T06:06:08;99681.56;;;17.96;68.33
38780;BME280;29273;49.962;9.768;2022-10-16T06:08:34;99685.28;;;17.94;68.50
38780;BME280;29273;49.962;9.768;2022-10-16T06:11:10;99681.81;;;17.94;68.29
38780;BME280;29273;49.962;9.768;2022-10-16T06:13:36;99688.22;;;17.93;68.33
38780;BME280;29273;49.962;9.768;2022-10-16T06:16:03;99691.16;;;17.91;68.39
38780;BME280;29273;49.962;9.768;2022-10-16T06:18:29;99686.63;;;17.92;68.24
38780;BME280;29273;49.962;9.768;2022-10-16T06:20:55;99688.22;;;17.93;68.44
38780;BME280;29273;49.962;9.768;2022-10-16T06:23:22;99700.28;;;17.90;68.50
38780;BME280;29273;49.962;9.768;2022-10-16T06:25:47;99706.44;;;17.91;68.64
38780;BME280;29273;49.962;9.768;2022-10-16T06:28:14;99696.50;;;17.91;68.63
38780;BME280;29273;49.962;9.768;2022-10-16T06:30:40;99711.00;;;17.90;68.80
38780;BME280;29273;49.962;9.768;2022-10-16T06:33:05;99718.78;;;17.92;68.80
38780;BME280;29273;49.962;9.768;2022-10-16T06:35:31;99724.13;;;17.92;68.95
38780;BME280;29273;49.962;9.768;2022-10-16T06:37:57;99724.94;;;17.92;68.91
38780;BME280;29273;49.962;9.768;2022-10-16T06:40:23;99725.50;;;17.94;68.96
38780;BME280;29273;49.962;9.768;2022-10-16T06:42:48;99730.84;;;17.94;68.95
38780;BME280;29273;49.962;9.768;2022-10-16T06:45:14;99737.59;;;17.97;69.05
38780;BME280;29273;49.962;9.768;2022-10-16T06:47:40;99746.41;;;17.98;69.04
38780;BME280;29273;49.962;9.768;2022-10-16T06:50:05;99744.28;;;18.00;69.34
38780;BME280;29273;49.962;9.768;2022-10-16T06:52:34;99747.53;;;18.02;69.19
38780;BME280;29273;49.962;9.768;2022-10-16T06:54:59;99755.31;;;18.03;69.32
38780;BME280;29273;49.962;9.768;2022-10-16T06:57:25;99749.69;;;18.05;69.59
38780;BME280;29273;49.962;9.768;2022-10-16T06:59:51;99751.31;;;18.06;69.38
38780;BME280;29273;49.962;9.768;2022-10-16T07:02:16;99769.84;;;18.07;69.24
38780;BME280;29273;49.962;9.768;2022-10-16T07:04:42;99762.59;;;18.08;69.59
38780;BME280;29273;49.962;9.768;2022-10-16T07:07:07;99774.94;;;18.09;69.43
38780;BME280;29273;49.962;9.768;2022-10-16T07:09:33;99772.03;;;18.10;69.33
38780;BME280;29273;49.962;9.768;2022-10-16T07:11:58;99778.97;;;18.11;69.03
38780;BME280;29273;49.962;9.768;2022-10-16T07:14:24;99776.03;;;18.13;69.14
38780;BME280;29273;49.962;9.768;2022-10-16T07:16:50;99778.47;;;18.15;69.33
38780;BME280;29273;49.962;9.768;2022-10-16T07:19:15;99774.19;;;18.14;69.55
38780;BME280;29273;49.962;9.768;2022-10-16T07:21:43;99783.59;;;18.16;69.23
38780;BME280;29273;49.962;9.768;2022-10-16T07:24:14;99787.94;;;18.22;68.73
38780;BME280;29273;49.962;9.768;2022-10-16T07:26:44;99786.31;;;18.21;69.00
38780;BME280;29273;49.962;9.768;2022-10-16T07:29:15;99777.53;;;18.26;68.91
38780;BME280;29273;49.962;9.768;2022-10-16T07:31:41;99778.53;;;18.20;69.45
38780;BME280;29273;49.962;9.768;2022-10-16T07:34:07;99781.50;;;18.23;69.81
38780;BME280;29273;49.962;9.768;2022-10-16T07:36:33;99783.69;;;18.26;69.95
38780;BME280;29273;49.962;9.768;2022-10-16T07:38:58;99782.63;;;18.27;69.95
38780;BME280;29273;49.962;9.768;2022-10-16T07:41:24;99789.94;;;18.32;70.07
38780;BME280;29273;49.962;9.768;2022-10-16T07:43:51;99803.38;;;18.37;70.18
38780;BME280;29273;49.962;9.768;2022-10-16T07:46:18;99794.25;;;18.38;70.23
38780;BME280;29273;49.962;9.768;2022-10-16T07:48:45;99801.78;;;18.41;70.39
38780;BME280;29273;49.962;9.768;2022-10-16T07:51:14;99801.03;;;18.46;69.96
38780;BME280;29273;49.962;9.768;2022-10-16T07:53:40;99805.34;;;18.47;70.49
38780;BME280;29273;49.962;9.768;2022-10-16T07:56:06;99819.84;;;18.51;70.24
38780;BME280;29273;49.962;9.768;2022-10-16T07:58:33;99812.63;;;18.52;69.98
38780;BME280;29273;49.962;9.768;2022-10-16T08:01:03;99797.41;;;18.57;69.76
38780;BME280;29273;49.962;9.768;2022-10-16T08:03:29;99816.66;;;18.54;70.08
38780;BME280;29273;49.962;9.768;2022-10-16T08:05:57;99813.75;;;18.56;69.87
38780;BME280;29273;49.962;9.768;2022-10-16T08:08:22;99808.63;;;18.54;70.05
38780;BME280;29273;49.962;9.768;2022-10-16T08:10:48;99809.44;;;18.55;69.93
38780;BME280;29273;49.962;9.768;2022-10-16T08:13:14;99812.94;;;18.55;70.25
38780;BME280;29273;49.962;9.768;2022-10-16T08:15:43;99823.13;;;18.58;70.26
38780;BME280;29273;49.962;9.768;2022-10-16T08:18:11;99826.94;;;18.62;70.13
38780;BME280;29273;49.962;9.768;2022-10-16T08:20:37;99823.72;;;18.60;70.49
38780;BME280;29273;49.962;9.768;2022-10-16T08:23:03;99823.19;;;18.63;70.67
38780;BME280;29273;49.962;9.768;2022-10-16T08:25:29;99815.47;;;18.67;70.63
38780;BME280;29273;49.962;9.768;2022-10-16T08:27:55;99827.03;;;18.73;70.33
38780;BME280;29273;49.962;9.768;2022-10-16T08:30:22;99827.88;;;18.78;70.59
38780;BME280;29273;49.962;9.768;2022-10-16T08:32:48;99824.94;;;18.80;71.06
38780;BME280;29273;49.962;9.768;2022-10-16T08:35:14;99827.44;;;18.86;71.22
38780;BME280;29273;49.962;9.768;2022-10-16T08:37:40;99834.47;;;18.93;71.16
38780;BME280;29273;49.962;9.768;2022-10-16T08:40:29;99837.22;;;19.03;70.83
38780;BME280;29273;49.962;9.768;2022-10-16T08:43:20;99840.19;;;19.07;70.45
38780;BME280;29273;49.962;9.768;2022-10-16T08:46:10;99846.72;;;19.16;70.57
38780;BME280;29273;49.962;9.768;2022-10-16T08:48:46;99853.75;;;19.22;70.69
38780;BME280;29273;49.962;9.768;2022-10-16T08:51:18;99847.59;;;19.27;70.56
38780;BME280;29273;49.962;9.768;2022-10-16T08:53:50;99839.31;;;19.33;70.42
38780;BME280;29273;49.962;9.768;2022-10-16T08:56:17;99838.78;;;19.31;70.49
38780;BME280;29273;49.962;9.768;2022-10-16T08:58:44;99842.81;;;19.34;70.14
38780;BME280;29273;49.962;9.768;2022-10-16T09:01:13;99847.97;;;19.40;70.39
38780;BME280;29273;49.962;9.768;2022-10-16T09:07:01;99858.72;;;19.40;69.97
38780;BME280;29273;49.962;9.768;2022-10-16T09:12:12;99869.75;;;19.44;70.07
38780;BME280;29273;49.962;9.768;2022-10-16T09:14:58;99872.19;;;19.51;69.42
38780;BME280;29273;49.962;9.768;2022-10-16T09:20:49;99876.81;;;19.55;69.71
38780;BME280;29273;49.962;9.768;2022-10-16T09:23:22;99878.16;;;19.58;69.81
38780;BME280;29273;49.962;9.768;2022-10-16T09:25:50;99880.53;;;19.54;69.91
38780;BME280;29273;49.962;9.768;2022-10-16T09:28:18;99878.16;;;19.58;69.58
38780;BME280;29273;49.962;9.768;2022-10-16T09:30:44;99881.13;;;19.62;69.71
38780;BME280;29273;49.962;9.768;2022-10-16T09:33:11;99888.66;;;19.65;69.83
38780;BME280;29273;49.962;9.768;2022-10-16T09:35:40;99889.19;;;19.67;70.01
38780;BME280;29273;49.962;9.768;2022-10-16T09:38:08;99897.25;;;19.67;70.00
38780;BME280;29273;49.962;9.768;2022-10-16T09:40:38;99910.25;;;19.75;69.70
38780;BME280;29273;49.962;9.768;2022-10-16T09:43:28;99919.34;;;19.74;69.40
38780;BME280;29273;49.962;9.768;2022-10-16T09:46:02;99932.25;;;19.72;69.95
38780;BME280;29273;49.962;9.768;2022-10-16T09:48:37;99929.88;;;19.75;69.50
38780;BME280;29273;49.962;9.768;2022-10-16T09:51:05;99938.13;;;19.69;69.78
38780;BME280;29273;49.962;9.768;2022-10-16T09:53:44;99955.84;;;19.70;69.37
38780;BME280;29273;49.962;9.768;2022-10-16T09:56:31;99942.38;;;19.65;68.89
38780;BME280;29273;49.962;9.768;2022-10-16T09:59:01;99956.59;;;19.60;69.04
38780;BME280;29273;49.962;9.768;2022-10-16T10:01:31;99957.69;;;19.59;68.72
38780;BME280;29273;49.962;9.768;2022-10-16T10:04:01;99962.16;;;19.48;69.04
38780;BME280;29273;49.962;9.768;2022-10-16T10:06:31;99967.84;;;19.52;68.80
38780;BME280;29273;49.962;9.768;2022-10-16T10:09:00;99959.41;;;19.43;69.23
38780;BME280;29273;49.962;9.768;2022-10-16T10:11:42;99953.53;;;19.46;68.63
38780;BME280;29273;49.962;9.768;2022-10-16T10:19:59;99948.84;;;19.31;68.69
38780;BME280;29273;49.962;9.768;2022-10-16T10:22:42;99951.25;;;19.28;70.19
38780;BME280;29273;49.962;9.768;2022-10-16T10:30:20;99969.28;;;19.32;69.65
38780;BME280;29273;49.962;9.768;2022-10-16T10:33:09;99967.16;;;19.34;69.96
38780;BME280;29273;49.962;9.768;2022-10-16T10:35:45;99964.47;;;19.34;70.10
38780;BME280;29273;49.962;9.768;2022-10-16T10:46:40;99936.88;;;19.44;70.74
38780;BME280;29273;49.962;9.768;2022-10-16T10:49:57;99951.13;;;19.45;70.54
38780;BME280;29273;49.962;9.768;2022-10-16T10:52:58;99954.44;;;19.57;70.61
38780;BME280;29273;49.962;9.768;2022-10-16T10:55:28;99949.88;;;19.57;71.29
38780;BME280;29273;49.962;9.768;2022-10-16T10:58:06;99951.81;;;19.67;71.00
38780;BME280;29273;49.962;9.768;2022-10-16T11:06:16;99951.91;;;19.77;70.70
38780;BME280;29273;49.962;9.768;2022-10-16T11:08:59;99938.00;;;19.86;70.67
38780;BME280;29273;49.962;9.768;2022-10-16T11:11:34;99941.50;;;19.91;70.67
38780;BME280;29273;49.962;9.768;2022-10-16T11:14:03;99939.63;;;19.87;70.99
38780;BME280;29273;49.962;9.768;2022-10-16T11:16:37;99950.94;;;19.94;70.57
38780;BME280;29273;49.962;9.768;2022-10-16T11:19:14;99945.56;;;19.94;70.30
38780;BME280;29273;49.962;9.768;2022-10-16T11:21:50;99949.84;;;19.95;70.82
38780;BME280;29273;49.962;9.768;2022-10-16T11:24:20;99948.69;;;19.75;70.52
38780;BME280;29273;49.962;9.768;2022-10-16T11:26:49;99935.06;;;19.92;70.89
38780;BME280;29273;49.962;9.768;2022-10-16T11:29:26;99932.16;;;19.99;70.75
38780;BME280;29273;49.962;9.768;2022-10-16T11:31:58;99927.84;;;19.98;70.63
38780;BME280;29273;49.962;9.768;2022-10-16T11:39:30;99927.31;;;20.01;70.61
38780;BME280;29273;49.962;9.768;2022-10-16T11:42:02;99927.09;;;20.08;70.39
38780;BME280;29273;49.962;9.768;2022-10-16T11:44:55;99923.59;;;20.07;70.20
38780;BME280;29273;49.962;9.768;2022-10-16T11:47:43;99927.63;;;20.10;70.40
38780;BME280;29273;49.962;9.768;2022-10-16T11:53:32;99931.41;;;20.14;69.92
38780;BME280;29273;49.962;9.768;2022-10-16T11:56:04;99929.00;;;20.12;69.58
38780;BME280;29273;49.962;9.768;2022-10-16T12:03:48;99923.13;;;20.21;68.86
38780;BME280;29273;49.962;9.768;2022-10-16T12:06:35;99923.41;;;20.29;68.79
38780;BME280;29273;49.962;9.768;2022-10-16T12:09:03;99915.88;;;20.26;68.14
38780;BME280;29273;49.962;9.768;2022-10-16T12:14:20;99912.41;;;20.36;69.31
38780;BME280;29273;49.962;9.768;2022-10-16T12:17:02;99910.28;;;20.43;69.08
38780;BME280;29273;49.962;9.768;2022-10-16T12:19:29;99916.22;;;20.45;68.93
38780;BME280;29273;49.962;9.768;2022-10-16T12:21:58;99916.78;;;20.52;69.37
38780;BME280;29273;49.962;9.768;2022-10-16T12:24:42;99922.41;;;20.56;69.32
38780;BME280;29273;49.962;9.768;2022-10-16T12:27:27;99922.16;;;20.58;68.92
38780;BME280;29273;49.962;9.768;2022-10-16T12:30:04;99920.34;;;20.63;68.75
38780;BME280;29273;49.962;9.768;2022-10-16T12:32:36;99925.44;;;20.65;68.44
38780;BME280;29273;49.962;9.768;2022-10-16T12:35:03;99923.81;;;20.64;68.54
38780;BME280;29273;49.962;9.768;2022-10-16T12:37:33;99914.13;;;20.68;67.79
38780;BME280;29273;49.962;9.768;2022-10-16T12:39:59;99917.09;;;20.72;67.54
38780;BME280;29273;49.962;9.768;2022-10-16T12:42:36;99912.03;;;20.80;67.82
38780;BME280;29273;49.962;9.768;2022-10-16T12:45:21;99919.56;;;20.94;68.31
38780;BME280;29273;49.962;9.768;2022-10-16T12:47:51;99923.59;;;21.01;68.76
38780;BME280;29273;49.962;9.768;2022-10-16T12:50:34;99918.53;;;21.10;68.04
38780;BME280;29273;49.962;9.768;2022-10-16T12:53:02;99916.63;;;21.05;65.78
38780;BME280;29273;49.962;9.768;2022-10-16T12:55:35;99921.47;;;21.24;66.76
38780;BME280;29273;49.962;9.768;2022-10-16T12:58:38;99923.63;;;21.32;67.00
38780;BME280;29273;49.962;9.768;2022-10-16T13:06:55;99934.16;;;21.49;65.93
38780;BME280;29273;49.962;9.768;2022-10-16T13:09:37;99935.50;;;21.52;67.11
38780;BME280;29273;49.962;9.768;2022-10-16T13:12:21;99942.22;;;21.54;66.48
38780;BME280;29273;49.962;9.768;2022-10-16T13:23:20;99927.66;;;21.66;66.96
38780;BME280;29273;49.962;9.768;2022-10-16T13:28:40;99941.94;;;21.66;66.03
38780;BME280;29273;49.962;9.768;2022-10-16T13:31:14;99946.22;;;21.77;66.27
38780;BME280;29273;49.962;9.768;2022-10-16T13:33:43;99955.13;;;21.78;66.10
38780;BME280;29273;49.962;9.768;2022-10-16T13:39:00;99951.34;;;21.84;65.91
38780;BME280;29273;49.962;9.768;2022-10-16T13:41:30;99942.72;;;21.82;63.85
38780;BME280;29273;49.962;9.768;2022-10-16T13:43:56;99948.09;;;21.87;63.65
38780;BME280;29273;49.962;9.768;2022-10-16T13:46:23;99953.72;;;21.96;64.45
38780;BME280;29273;49.962;9.768;2022-10-16T13:49:05;99953.19;;;22.04;64.96
38780;BME280;29273;49.962;9.768;2022-10-16T13:51:31;99943.75;;;21.96;62.55
38780;BME280;29273;49.962;9.768;2022-10-16T13:53:57;99935.38;;;21.98;63.21
38780;BME280;29273;49.962;9.768;2022-10-16T13:56:29;99952.34;;;22.09;64.54
38780;BME280;29273;49.962;9.768;2022-10-16T13:59:04;99948.31;;;22.06;64.63
38780;BME280;29273;49.962;9.768;2022-10-16T14:01:34;99954.25;;;22.03;64.86
38780;BME280;29273;49.962;9.768;2022-10-16T14:04:11;99952.13;;;22.00;64.62
38780;BME280;29273;49.962;9.768;2022-10-16T14:06:42;99953.47;;;21.97;64.92
38780;BME280;29273;49.962;9.768;2022-10-16T14:09:23;99955.91;;;21.94;64.98
38780;BME280;29273;49.962;9.768;2022-10-16T14:11:51;99953.22;;;21.89;65.09
38780;BME280;29273;49.962;9.768;2022-10-16T14:14:19;99958.63;;;21.84;65.71
38780;BME280;29273;49.962;9.768;2022-10-16T14:16:46;99951.09;;;21.80;65.30
38780;BME280;29273;49.962;9.768;2022-10-16T14:19:18;99951.59;;;21.83;65.59
38780;BME280;29273;49.962;9.768;2022-10-16T14:21:44;99948.94;;;21.72;65.40
38780;BME280;29273;49.962;9.768;2022-10-16T14:24:11;99949.75;;;21.73;65.50
38780;BME280;29273;49.962;9.768;2022-10-16T14:26:43;99947.31;;;21.76;65.45
38780;BME280;29273;49.962;9.768;2022-10-16T14:29:14;99953.78;;;21.75;65.65
38780;BME280;29273;49.962;9.768;2022-10-16T14:31:40;99952.72;;;21.66;65.99
38780;BME280;29273;49.962;9.768;2022-10-16T14:34:31;99962.94;;;21.74;66.11
38780;BME280;29273;49.962;9.768;2022-10-16T14:36:59;99962.19;;;21.53;66.93
38780;BME280;29273;49.962;9.768;2022-10-16T14:39:26;99961.06;;;21.65;66.54